Terminal Aerodrome Forecast
Issued by NWS Jackson, MS

Home | Current Version | Previous Version | Text Only | Print | Product List | Glossary On
Versions: 1 2 3 4 5 6 7 8 9 10 11 12 13
000
FTUS44 KJAN 281120
TAFJAN
TAF
KJAN 281120Z 2812/2912 VRB04KT P6SM SCT100 BKN250
     FM281800 03005KT P6SM OVC050
     FM282300 05007KT P6SM BKN100=

USA.gov is the U.S. government's official web portal to all federal, state and local government web resources and services.